createdAt,value
2018-02-08T00:01:00.421Z,-2.70
2018-02-08T00:03:27.983Z,-2.70
2018-02-08T00:05:55.530Z,-2.70
2018-02-08T00:08:23.871Z,-2.70
2018-02-08T00:10:51.473Z,-2.70
2018-02-08T00:13:19.068Z,-2.70
2018-02-08T00:15:46.774Z,-2.80
2018-02-08T00:18:14.361Z,-2.80
2018-02-08T00:20:41.876Z,-2.70
2018-02-08T00:23:09.530Z,-2.80
2018-02-08T00:25:37.089Z,-2.80
2018-02-08T00:28:04.698Z,-2.90
2018-02-08T00:30:32.275Z,-3.00
2018-02-08T00:32:59.871Z,-3.10
2018-02-08T00:35:28.198Z,-3.20
2018-02-08T00:37:55.773Z,-3.20
2018-02-08T00:40:24.130Z,-3.20
2018-02-08T00:42:51.717Z,-3.20
2018-02-08T00:45:19.320Z,-3.30
2018-02-08T00:47:46.943Z,-3.30
2018-02-08T00:50:14.570Z,-3.30
2018-02-08T00:52:42.163Z,-3.30
2018-02-08T00:55:09.686Z,-3.30
2018-02-08T00:57:38.081Z,-3.30
2018-02-08T01:00:05.659Z,-3.30
2018-02-08T01:02:33.212Z,-3.30
2018-02-08T01:05:00.736Z,-3.30
2018-02-08T01:07:28.318Z,-3.30
2018-02-08T01:09:56.621Z,-3.40
2018-02-08T01:12:25.132Z,-3.40
2018-02-08T01:14:52.717Z,-3.40
2018-02-08T01:17:20.245Z,-3.40
2018-02-08T01:19:48.251Z,-3.30
2018-02-08T01:22:15.763Z,-3.30
2018-02-08T01:24:44.376Z,-3.20
2018-02-08T01:27:11.913Z,-3.20
2018-02-08T01:29:40.284Z,-3.30
2018-02-08T01:32:09.343Z,-3.30
2018-02-08T01:34:37.172Z,-3.30
2018-02-08T01:37:05.045Z,-3.20
2018-02-08T01:39:32.753Z,-3.10
2018-02-08T01:42:00.272Z,-3.10
2018-02-08T01:44:27.853Z,-3.20
2018-02-08T01:46:55.381Z,-3.20
2018-02-08T01:49:35.648Z,-3.40
2018-02-08T01:52:03.370Z,-3.40
2018-02-08T01:54:30.929Z,-3.50
2018-02-08T01:56:58.435Z,-3.50
2018-02-08T01:59:26.727Z,-3.40
2018-02-08T02:01:55.009Z,-3.40
2018-02-08T02:04:23.278Z,-3.50
2018-02-08T02:06:51.590Z,-3.60
2018-02-08T02:09:19.150Z,-3.60
2018-02-08T02:11:46.679Z,-3.60
2018-02-08T02:14:14.991Z,-3.60
2018-02-08T02:16:44.702Z,-3.60
2018-02-08T02:19:12.237Z,-3.70
2018-02-08T02:21:39.750Z,-3.70
2018-02-08T02:24:07.258Z,-3.70
2018-02-08T02:26:35.504Z,-3.70
2018-02-08T02:29:03.024Z,-3.60
2018-02-08T02:31:31.284Z,-3.50
2018-02-08T02:33:58.813Z,-3.50
2018-02-08T02:36:26.328Z,-3.50
2018-02-08T02:38:54.605Z,-3.40
2018-02-08T02:41:22.890Z,-3.40
2018-02-08T02:43:51.174Z,-3.40
2018-02-08T02:46:19.433Z,-3.50
2018-02-08T02:48:47.815Z,-3.40
2018-02-08T02:51:16.082Z,-3.40
2018-02-08T02:53:43.581Z,-3.40
2018-02-08T02:56:11.879Z,-3.50
2018-02-08T02:58:39.391Z,-3.50
2018-02-08T03:01:06.910Z,-3.50
2018-02-08T03:03:34.461Z,-3.40
2018-02-08T03:06:02.757Z,-3.50
2018-02-08T03:08:30.284Z,-3.50
2018-02-08T03:10:58.574Z,-3.50
2018-02-08T03:13:26.893Z,-3.60
2018-02-08T03:15:54.416Z,-3.60
2018-02-08T03:18:22.705Z,-3.70
2018-02-08T03:20:51.017Z,-3.80
2018-02-08T03:23:18.569Z,-3.80
2018-02-08T03:25:46.087Z,-3.80
2018-02-08T03:28:13.604Z,-3.70
2018-02-08T03:30:43.700Z,-3.60
2018-02-08T03:33:11.978Z,-3.60
2018-02-08T03:35:40.251Z,-3.70
2018-02-08T03:38:08.534Z,-3.80
2018-02-08T03:40:36.094Z,-3.80
2018-02-08T03:43:04.372Z,-3.90
2018-02-08T03:45:31.884Z,-3.90
2018-02-08T03:47:59.388Z,-3.90
2018-02-08T03:50:26.946Z,-3.90
2018-02-08T03:52:55.223Z,-4.10
2018-02-08T03:55:22.765Z,-4.10
2018-02-08T03:57:50.256Z,-4.10
2018-02-08T04:00:19.238Z,-4.10
2018-02-08T04:02:46.753Z,-4.10
2018-02-08T04:05:14.283Z,-4.10
2018-02-08T04:07:41.795Z,-4.20
2018-02-08T04:10:09.300Z,-4.20
2018-02-08T04:12:36.788Z,-4.20
2018-02-08T04:15:04.324Z,-4.20
2018-02-08T04:17:31.823Z,-4.20
2018-02-08T04:20:00.121Z,-4.20
2018-02-08T04:22:27.691Z,-4.20
2018-02-08T04:24:55.211Z,-4.20
2018-02-08T04:27:22.705Z,-4.30
2018-02-08T04:29:51.009Z,-4.20
2018-02-08T04:32:18.505Z,-4.30
2018-02-08T04:34:46.059Z,-4.20
2018-02-08T04:37:13.621Z,-4.20
2018-02-08T04:39:52.996Z,-4.30
2018-02-08T04:42:33.750Z,-4.30
2018-02-08T04:45:13.278Z,-4.30
2018-02-08T04:48:04.437Z,-4.20
2018-02-08T04:50:31.975Z,-4.10
2018-02-08T04:53:00.252Z,-4.00
2018-02-08T04:55:28.588Z,-4.00
2018-02-08T04:57:56.425Z,-4.00
2018-02-08T05:00:23.933Z,-4.00
2018-02-08T05:02:54.425Z,-4.00
2018-02-08T05:05:22.023Z,-4.00
2018-02-08T05:07:49.879Z,-4.00
2018-02-08T05:10:17.405Z,-4.00
2018-02-08T05:12:45.679Z,-4.00
2018-02-08T05:15:13.951Z,-4.00
2018-02-08T05:17:42.227Z,-4.00
2018-02-08T05:20:09.733Z,-4.00
2018-02-08T05:22:37.254Z,-4.00
2018-02-08T05:25:04.770Z,-3.90
2018-02-08T05:27:32.301Z,-3.90
2018-02-08T05:30:00.577Z,-4.00
2018-02-08T05:32:28.124Z,-4.00
2018-02-08T05:34:55.691Z,-4.00
2018-02-08T05:37:25.181Z,-4.00
2018-02-08T05:39:52.710Z,-4.00
2018-02-08T05:42:20.236Z,-4.00
2018-02-08T05:44:48.497Z,-4.00
2018-02-08T05:47:16.004Z,-4.10
2018-02-08T05:49:43.534Z,-4.00
2018-02-08T05:52:11.054Z,-4.00
2018-02-08T05:54:38.545Z,-4.00
2018-02-08T05:57:06.050Z,-4.00
2018-02-08T05:59:33.647Z,-4.10
2018-02-08T06:02:01.186Z,-4.00
2018-02-08T06:04:28.678Z,-4.00
2018-02-08T06:06:56.285Z,-4.10
2018-02-08T06:09:24.587Z,-4.20
2018-02-08T06:11:52.108Z,-4.20
2018-02-08T06:14:19.622Z,-4.20
2018-02-08T06:16:47.141Z,-4.20
2018-02-08T06:19:14.629Z,-4.20
2018-02-08T06:21:42.933Z,-4.30
2018-02-08T06:24:10.502Z,-4.30
2018-02-08T06:26:38.060Z,-4.30
2018-02-08T06:29:05.620Z,-4.30
2018-02-08T06:31:33.118Z,-4.30
2018-02-08T06:34:00.795Z,-4.30
2018-02-08T06:36:28.307Z,-4.20
2018-02-08T06:38:55.831Z,-4.10
2018-02-08T06:41:23.344Z,-4.20
2018-02-08T06:43:50.834Z,-4.20
2018-02-08T06:46:18.356Z,-4.20
2018-02-08T06:48:46.632Z,-4.30
2018-02-08T06:51:14.918Z,-4.30
2018-02-08T06:53:43.197Z,-4.30
2018-02-08T06:56:11.477Z,-4.20
2018-02-08T06:58:39.750Z,-4.20
2018-02-08T07:01:08.016Z,-4.20
2018-02-08T07:03:36.326Z,-4.10
2018-02-08T07:06:04.581Z,-4.10
2018-02-08T07:08:32.097Z,-4.10
2018-02-08T07:10:59.590Z,-4.10
2018-02-08T07:13:27.121Z,-4.00
2018-02-08T07:15:54.634Z,-4.00
2018-02-08T07:18:22.910Z,-3.90
2018-02-08T07:20:50.432Z,-4.00
2018-02-08T07:23:19.079Z,-3.90
2018-02-08T07:25:46.719Z,-3.80
2018-02-08T07:28:14.330Z,-3.80
2018-02-08T07:30:41.833Z,-3.80
2018-02-08T07:33:09.347Z,-3.70
2018-02-08T07:35:36.890Z,-3.60
2018-02-08T07:38:04.378Z,-3.50
2018-02-08T07:40:31.910Z,-3.40
2018-02-08T07:42:59.472Z,-3.20
2018-02-08T07:45:26.985Z,-3.10
2018-02-08T07:47:54.487Z,-3.00
2018-02-08T07:50:22.006Z,-2.90
2018-02-08T07:52:49.553Z,-2.80
2018-02-08T07:55:17.562Z,-2.70
2018-02-08T07:57:45.102Z,-2.60
2018-02-08T08:00:12.653Z,-2.60
2018-02-08T08:02:40.951Z,-2.40
2018-02-08T08:05:08.480Z,-2.40
2018-02-08T08:07:35.998Z,-2.40
2018-02-08T08:10:03.509Z,-2.30
2018-02-08T08:12:31.790Z,-2.10
2018-02-08T08:15:00.061Z,-2.00
2018-02-08T08:17:28.417Z,-1.90
2018-02-08T08:19:55.987Z,-1.90
2018-02-08T08:22:23.758Z,-1.90
2018-02-08T08:24:51.942Z,-1.80
2018-02-08T08:27:20.446Z,-1.70
2018-02-08T08:29:48.792Z,-1.70
2018-02-08T08:32:16.757Z,-1.70
2018-02-08T08:34:44.899Z,-1.70
2018-02-08T08:37:12.483Z,-1.70
2018-02-08T08:39:40.020Z,-1.60
2018-02-08T08:42:08.361Z,-1.30
2018-02-08T08:44:35.935Z,-1.30
2018-02-08T08:47:03.456Z,-1.20
2018-02-08T08:49:31.006Z,-1.10
2018-02-08T08:51:59.356Z,-1.00
2018-02-08T08:54:26.880Z,-1.00
2018-02-08T08:56:54.476Z,-0.80
2018-02-08T08:59:22.014Z,-0.90
2018-02-08T09:01:49.520Z,-1.00
2018-02-08T09:04:17.806Z,-0.90
2018-02-08T09:06:46.092Z,-0.80
2018-02-08T09:09:14.523Z,-0.60
2018-02-08T09:11:42.045Z,-0.60
2018-02-08T09:14:10.358Z,-0.60
2018-02-08T09:16:37.878Z,-0.70
2018-02-08T09:19:05.409Z,-0.70
2018-02-08T09:21:32.940Z,-0.70
2018-02-08T09:24:00.470Z,-0.60
2018-02-08T09:26:29.494Z,-0.50
2018-02-08T09:28:57.012Z,-0.50
2018-02-08T09:31:25.453Z,-0.50
2018-02-08T09:33:53.007Z,-0.40
2018-02-08T09:36:20.870Z,-0.30
2018-02-08T09:38:49.153Z,-0.30
2018-02-08T09:41:16.654Z,-0.30
2018-02-08T09:43:44.169Z,-0.30
2018-02-08T09:46:12.541Z,-0.20
2018-02-08T09:48:40.971Z,-0.20
2018-02-08T09:51:08.481Z,-0.20
2018-02-08T09:53:36.816Z,-0.10
2018-02-08T09:56:04.346Z,-0.10
2018-02-08T09:58:33.381Z,-0.10
2018-02-08T10:01:01.017Z,-0.10
2018-02-08T10:03:29.357Z,0.10
2018-02-08T10:05:56.864Z,0.10
2018-02-08T10:08:25.143Z,0.30
2018-02-08T10:10:52.690Z,0.20
2018-02-08T10:13:20.960Z,0.40
2018-02-08T10:15:48.489Z,0.30
2018-02-08T10:18:16.034Z,0.40
2018-02-08T10:20:43.559Z,0.50
2018-02-08T10:23:11.123Z,0.50
2018-02-08T10:25:39.550Z,0.50
2018-02-08T10:28:07.078Z,0.50
2018-02-08T10:30:36.034Z,0.60
2018-02-08T10:33:03.570Z,0.50
2018-02-08T10:35:31.170Z,0.60
2018-02-08T10:37:58.696Z,0.60
2018-02-08T10:40:26.185Z,0.70
2018-02-08T10:42:53.684Z,0.90
2018-02-08T10:45:22.045Z,1.00
2018-02-08T10:47:49.527Z,1.00
2018-02-08T10:50:17.044Z,1.00
2018-02-08T10:52:48.218Z,1.20
2018-02-08T10:55:20.997Z,1.30
2018-02-08T10:57:51.309Z,1.20
2018-02-08T11:00:18.862Z,1.30
2018-02-08T11:02:46.380Z,1.40
2018-02-08T11:05:14.292Z,1.30
2018-02-08T11:07:41.813Z,1.30
2018-02-08T11:10:09.345Z,1.20
2018-02-08T11:12:36.875Z,1.20
2018-02-08T11:15:04.392Z,1.20
2018-02-08T11:17:31.905Z,1.30
2018-02-08T11:19:59.455Z,1.50
2018-02-08T11:22:26.984Z,1.50
2018-02-08T11:24:55.256Z,1.60
2018-02-08T11:27:22.775Z,1.60
2018-02-08T11:29:50.305Z,1.70
2018-02-08T11:32:18.593Z,1.70
2018-02-08T11:34:46.887Z,1.70
2018-02-08T11:37:16.085Z,1.80
2018-02-08T11:39:44.380Z,1.70
2018-02-08T11:42:11.909Z,1.70
2018-02-08T11:44:39.456Z,1.70
2018-02-08T11:47:06.980Z,1.80
2018-02-08T11:49:35.079Z,1.90
2018-02-08T11:52:02.644Z,2.00
2018-02-08T11:54:30.202Z,2.10
2018-02-08T11:56:57.736Z,2.10
2018-02-08T11:59:25.281Z,2.30
2018-02-08T12:01:53.576Z,2.10
2018-02-08T12:04:22.184Z,2.00
2018-02-08T12:06:49.707Z,2.00
2018-02-08T12:09:18.219Z,2.00
2018-02-08T12:11:45.741Z,2.00
2018-02-08T12:14:13.272Z,2.00
2018-02-08T12:16:40.800Z,1.90
2018-02-08T12:19:09.275Z,1.80
2018-02-08T12:21:37.588Z,1.90
2018-02-08T12:24:05.113Z,1.80
2018-02-08T12:26:32.605Z,1.90
2018-02-08T12:29:00.167Z,2.00
2018-02-08T12:31:27.727Z,2.00
2018-02-08T12:33:58.051Z,2.00
2018-02-08T12:36:25.581Z,2.00
2018-02-08T12:38:53.106Z,1.90
2018-02-08T12:41:20.701Z,1.90
2018-02-08T12:43:49.005Z,1.90
2018-02-08T12:46:17.316Z,1.80
2018-02-08T12:48:44.890Z,1.70
2018-02-08T12:51:12.578Z,1.70
2018-02-08T12:53:40.090Z,1.70
2018-02-08T12:56:08.370Z,1.60
2018-02-08T12:58:36.648Z,1.70
2018-02-08T13:01:04.961Z,1.70
2018-02-08T13:03:32.724Z,1.70
2018-02-08T13:06:02.619Z,1.80
2018-02-08T13:08:30.226Z,1.70
2018-02-08T13:10:57.759Z,1.80
2018-02-08T13:13:26.058Z,2.00
2018-02-08T13:15:53.668Z,2.00
2018-02-08T13:18:21.177Z,1.90
2018-02-08T13:20:48.713Z,1.80
2018-02-08T13:23:16.978Z,1.90
2018-02-08T13:25:44.510Z,1.90
2018-02-08T13:28:12.015Z,2.00
2018-02-08T13:30:41.062Z,1.90
2018-02-08T13:33:08.597Z,1.90
2018-02-08T13:35:36.922Z,1.80
2018-02-08T13:38:04.504Z,1.80
2018-02-08T13:40:37.180Z,1.80
2018-02-08T13:43:04.762Z,1.80
2018-02-08T13:45:32.693Z,1.70
2018-02-08T13:48:05.825Z,1.70
2018-02-08T13:50:35.158Z,1.60
2018-02-08T13:53:09.093Z,1.60
2018-02-08T13:58:38.933Z,1.50
2018-02-08T14:01:09.025Z,1.50
2018-02-08T14:03:36.571Z,1.50
2018-02-08T14:06:07.247Z,1.50
2018-02-08T14:08:34.781Z,1.50
2018-02-08T14:11:03.070Z,1.50
2018-02-08T14:13:30.588Z,1.50
2018-02-08T14:15:58.169Z,1.50
2018-02-08T14:18:26.468Z,1.40
2018-02-08T14:20:54.843Z,1.40
2018-02-08T14:23:23.187Z,1.30
2018-02-08T14:25:50.716Z,1.30
2018-02-08T14:28:18.245Z,1.30
2018-02-08T14:30:45.816Z,1.20
2018-02-08T14:33:14.117Z,1.30
2018-02-08T14:35:41.675Z,1.20
2018-02-08T14:38:09.270Z,1.30
2018-02-08T14:40:36.776Z,1.30
2018-02-08T14:43:05.138Z,1.20
2018-02-08T14:45:32.661Z,1.20
2018-02-08T14:48:00.170Z,1.20
2018-02-08T14:50:27.691Z,1.10
2018-02-08T14:52:55.252Z,1.10
2018-02-08T14:55:22.759Z,1.10
2018-02-08T14:57:50.303Z,1.00
2018-02-08T15:00:17.805Z,1.00
2018-02-08T15:02:45.322Z,0.90
2018-02-08T15:05:13.754Z,0.90
2018-02-08T15:07:41.263Z,0.90
2018-02-08T15:10:08.802Z,0.80
2018-02-08T15:12:37.193Z,0.80
2018-02-08T15:15:04.705Z,0.80
2018-02-08T15:17:33.586Z,0.70
2018-02-08T15:20:01.107Z,0.70
2018-02-08T15:22:29.408Z,0.70
2018-02-08T15:24:57.688Z,0.70
2018-02-08T15:27:25.191Z,0.70
2018-02-08T15:29:54.248Z,0.60
2018-02-08T15:32:21.732Z,0.60
2018-02-08T15:34:49.273Z,0.60
2018-02-08T15:37:16.767Z,0.50
2018-02-08T15:39:44.326Z,0.50
2018-02-08T15:42:11.845Z,0.40
2018-02-08T15:44:40.124Z,0.30
2018-02-08T15:47:08.401Z,0.30
2018-02-08T15:49:36.666Z,0.20
2018-02-08T15:52:04.185Z,0.20
2018-02-08T15:54:31.701Z,0.20
2018-02-08T15:56:59.221Z,0.20
2018-02-08T15:59:26.746Z,0.10
2018-02-08T16:01:55.057Z,0.00
2018-02-08T16:04:22.542Z,0.00
2018-02-08T16:06:50.103Z,0.00
2018-02-08T16:09:17.601Z,0.00
2018-02-08T16:11:45.105Z,0.00
2018-02-08T16:14:12.621Z,-0.10
2018-02-08T16:16:41.668Z,-0.20
2018-02-08T16:19:09.205Z,-0.20
2018-02-08T16:21:37.548Z,-0.20
2018-02-08T16:24:05.108Z,-0.20
2018-02-08T16:26:32.633Z,-0.30
2018-02-08T16:29:00.163Z,-0.30
2018-02-08T16:31:28.485Z,-0.30
2018-02-08T16:33:56.022Z,-0.40
2018-02-08T16:36:24.300Z,-0.40
2018-02-08T16:38:52.680Z,-0.40
2018-02-08T16:41:20.256Z,-0.40
2018-02-08T16:43:48.546Z,-0.40
2018-02-08T16:46:16.046Z,-0.40
2018-02-08T16:48:43.567Z,-0.40
2018-02-08T16:51:11.094Z,-0.40
2018-02-08T16:53:39.355Z,-0.50
2018-02-08T16:56:06.961Z,-0.50
2018-02-08T16:58:35.252Z,-0.50
2018-02-08T17:01:03.881Z,-0.50
2018-02-08T17:03:31.382Z,-0.50
2018-02-08T17:05:59.670Z,-0.60
2018-02-08T17:08:27.940Z,-0.60
2018-02-08T17:10:55.488Z,-0.60
2018-02-08T17:13:23.021Z,-0.60
2018-02-08T17:15:50.545Z,-0.60
2018-02-08T17:18:18.829Z,-0.70
2018-02-08T17:20:47.105Z,-0.60
2018-02-08T17:23:15.370Z,-0.70
2018-02-08T17:25:42.892Z,-0.70
2018-02-08T17:28:10.428Z,-0.70
2018-02-08T17:30:37.962Z,-0.70
2018-02-08T17:33:06.256Z,-0.70
2018-02-08T17:35:34.550Z,-0.70
2018-02-08T17:38:02.806Z,-0.80
2018-02-08T17:40:31.095Z,-0.80
2018-02-08T17:42:59.439Z,-0.80
2018-02-08T17:45:26.949Z,-0.80
2018-02-08T17:47:55.282Z,-0.80
2018-02-08T17:50:23.285Z,-0.80
2018-02-08T17:52:50.812Z,-0.80
2018-02-08T17:55:18.316Z,-0.90
2018-02-08T17:57:45.835Z,-0.80
2018-02-08T18:00:13.357Z,-0.70
2018-02-08T18:02:42.669Z,-0.80
2018-02-08T18:05:10.220Z,-0.80
2018-02-08T18:07:38.514Z,-0.70
2018-02-08T18:10:06.790Z,-0.70
2018-02-08T18:12:35.090Z,-0.70
2018-02-08T18:15:03.395Z,-0.80
2018-02-08T18:17:30.944Z,-0.80
2018-02-08T18:19:58.481Z,-0.80
2018-02-08T18:22:26.811Z,-0.90
2018-02-08T18:24:54.357Z,-0.90
2018-02-08T18:27:22.117Z,-0.90
2018-02-08T18:29:49.739Z,-1.00
2018-02-08T18:32:17.300Z,-1.00
2018-02-08T18:34:45.049Z,-1.10
2018-02-08T18:37:12.589Z,-1.10
2018-02-08T18:39:40.313Z,-1.00
2018-02-08T18:42:07.818Z,-1.00
2018-02-08T18:44:35.350Z,-1.00
2018-02-08T18:47:03.636Z,-0.90
2018-02-08T18:49:31.159Z,-0.90
2018-02-08T18:51:58.694Z,-0.90
2018-02-08T18:54:26.309Z,-0.90
2018-02-08T18:56:53.963Z,-1.00
2018-02-08T18:59:22.534Z,-1.10
2018-02-08T19:01:50.065Z,-1.10
2018-02-08T19:04:17.752Z,-1.10
2018-02-08T19:06:45.279Z,-1.10
2018-02-08T19:09:14.614Z,-1.20
2018-02-08T19:11:42.293Z,-1.20
2018-02-08T19:14:09.881Z,-1.20
2018-02-08T19:16:37.411Z,-1.30
2018-02-08T19:19:05.028Z,-1.30
2018-02-08T19:21:33.429Z,-1.30
2018-02-08T19:24:01.121Z,-1.30
2018-02-08T19:26:28.680Z,-1.30
2018-02-08T19:28:56.238Z,-1.30
2018-02-08T19:31:24.493Z,-1.30
2018-02-08T19:33:53.046Z,-1.30
2018-02-08T19:36:20.591Z,-1.30
2018-02-08T19:38:53.155Z,-1.30
2018-02-08T19:41:20.725Z,-1.30
2018-02-08T19:43:49.121Z,-1.40
2018-02-08T19:46:16.665Z,-1.40
2018-02-08T19:48:44.245Z,-1.40
2018-02-08T19:51:11.765Z,-1.40
2018-02-08T19:53:40.115Z,-1.40
2018-02-08T19:56:07.720Z,-1.40
2018-02-08T19:58:36.074Z,-1.40
2018-02-08T20:01:03.629Z,-1.50
2018-02-08T20:03:31.177Z,-1.50
2018-02-08T20:05:58.716Z,-1.50
2018-02-08T20:08:26.237Z,-1.50
2018-02-08T20:10:54.402Z,-1.50
2018-02-08T20:13:25.561Z,-1.60
2018-02-08T20:15:54.029Z,-1.60
2018-02-08T20:18:21.602Z,-1.60
2018-02-08T20:20:50.326Z,-1.60
2018-02-08T20:23:18.649Z,-1.60
2018-02-08T20:25:47.200Z,-1.70
2018-02-08T20:28:14.783Z,-1.60
2018-02-08T20:30:42.421Z,-1.60
2018-02-08T20:33:12.700Z,-1.60
2018-02-08T20:35:40.956Z,-1.60
2018-02-08T20:38:08.706Z,-1.60
2018-02-08T20:40:36.971Z,-1.70
2018-02-08T20:43:10.352Z,-1.70
2018-02-08T20:45:38.948Z,-1.70
2018-02-08T20:48:07.497Z,-1.70
2018-02-08T20:50:35.026Z,-1.70
2018-02-08T20:53:03.408Z,-1.80
2018-02-08T20:55:30.981Z,-1.90
2018-02-08T20:57:58.770Z,-1.90
2018-02-08T21:00:26.289Z,-2.00
2018-02-08T21:02:54.579Z,-2.00
2018-02-08T21:05:22.921Z,-2.00
2018-02-08T21:07:51.417Z,-2.00
2018-02-08T21:10:18.935Z,-2.00
2018-02-08T21:12:46.440Z,-2.00
2018-02-08T21:15:13.952Z,-2.00
2018-02-08T21:17:42.751Z,-2.00
2018-02-08T21:20:10.263Z,-2.00
2018-02-08T21:22:37.814Z,-2.10
2018-02-08T21:25:05.324Z,-2.00
2018-02-08T21:27:33.768Z,-2.00
2018-02-08T21:30:01.268Z,-2.00
2018-02-08T21:32:29.543Z,-2.10
2018-02-08T21:34:57.872Z,-2.20
2018-02-08T21:37:25.707Z,-2.20
2018-02-08T21:39:53.377Z,-2.20
2018-02-08T21:42:20.939Z,-2.20
2018-02-08T21:44:48.523Z,-2.30
2018-02-08T21:47:16.096Z,-2.30
2018-02-08T21:49:43.665Z,-2.20
2018-02-08T21:52:11.225Z,-2.20
2018-02-08T21:54:38.766Z,-2.30
2018-02-08T21:57:06.283Z,-2.30
2018-02-08T21:59:33.825Z,-2.20
2018-02-08T22:02:01.361Z,-2.20
2018-02-08T22:04:28.899Z,-2.30
2018-02-08T22:06:56.466Z,-2.30
2018-02-08T22:09:24.749Z,-2.30
2018-02-08T22:11:53.047Z,-2.30
2018-02-08T22:14:20.548Z,-2.30
2018-02-08T22:16:48.042Z,-2.30
2018-02-08T22:19:16.322Z,-2.30
2018-02-08T22:21:43.843Z,-2.30
2018-02-08T22:24:11.346Z,-2.30
2018-02-08T22:26:39.631Z,-2.30
2018-02-08T22:29:07.376Z,-2.30
2018-02-08T22:31:34.898Z,-2.30
2018-02-08T22:34:02.438Z,-2.30
2018-02-08T22:36:30.753Z,-2.10
2018-02-08T22:38:58.298Z,-2.10
2018-02-08T22:41:26.175Z,-2.10
2018-02-08T22:43:53.757Z,-2.10
2018-02-08T22:46:21.272Z,-2.20
2018-02-08T22:48:48.859Z,-2.20
2018-02-08T22:51:16.383Z,-2.20
2018-02-08T22:53:43.915Z,-2.30
2018-02-08T22:56:11.496Z,-2.30
2018-02-08T22:58:39.241Z,-2.40
2018-02-08T23:01:06.760Z,-2.40
2018-02-08T23:03:34.268Z,-2.40
2018-02-08T23:06:01.796Z,-2.40
2018-02-08T23:08:31.161Z,-2.40
2018-02-08T23:10:59.422Z,-2.40
2018-02-08T23:13:27.007Z,-2.50
2018-02-08T23:15:56.015Z,-2.50
2018-02-08T23:18:24.380Z,-2.40
2018-02-08T23:20:51.965Z,-2.40
2018-02-08T23:23:19.554Z,-2.40
2018-02-08T23:25:48.065Z,-2.50
2018-02-08T23:28:16.363Z,-2.50
2018-02-08T23:30:43.978Z,-2.50
2018-02-08T23:33:12.262Z,-2.50
2018-02-08T23:35:39.756Z,-2.50
2018-02-08T23:38:07.297Z,-2.50
2018-02-08T23:40:35.561Z,-2.50
2018-02-08T23:43:03.229Z,-2.50
2018-02-08T23:45:30.726Z,-2.50
2018-02-08T23:47:59.008Z,-2.60
2018-02-08T23:50:26.520Z,-2.60
2018-02-08T23:52:54.040Z,-2.60
2018-02-08T23:55:21.549Z,-2.60
2018-02-08T23:57:49.059Z,-2.50
